Time,TemperatureF,DewpointF,PressureIn,WindDirection,WindDirectionDegrees,WindSpeedMPH,WindSpeedGustMPH,Humidity,HourlyPrecipIn,Conditions,Clouds,dailyrainin,SoftwareType,DateUTC
2013-03-06 00:03:00,25.8,18.0,30.39,North,8,3.0,4.0,73,0.00,,,0.00,weatherlink.com 1.10,2013-03-06 07:03:00,
2013-03-06 00:18:00,26.1,19.0,30.39,North,11,3.0,4.0,74,0.00,,,0.00,weatherlink.com 1.10,2013-03-06 07:18:00,
2013-03-06 00:33:00,24.2,16.0,30.38,NE,40,5.0,6.0,72,0.00,,,0.00,weatherlink.com 1.10,2013-03-06 07:33:00,
2013-03-06 00:48:00,22.8,18.0,30.38,NNE,25,3.0,4.0,80,0.00,,,0.00,weatherlink.com 1.10,2013-03-06 07:48:00,
2013-03-06 01:03:00,23.8,18.0,30.39,NNE,33,4.0,4.0,77,0.00,,,0.00,weatherlink.com 1.10,2013-03-06 08:03:00,
2013-03-06 01:18:00,23.8,17.0,30.38,NE,41,2.0,3.0,76,0.00,,,0.00,weatherlink.com 1.10,2013-03-06 08:18:00,
2013-03-06 01:33:00,23.3,17.0,30.38,NE,41,2.0,3.0,76,0.00,,,0.00,weatherlink.com 1.10,2013-03-06 08:33:00,
2013-03-06 01:48:00,22.7,17.0,30.38,North,9,2.0,3.0,77,0.00,,,0.00,weatherlink.com 1.10,2013-03-06 08:48:00,
2013-03-06 02:03:00,21.7,16.0,30.37,NE,40,2.0,2.0,78,0.00,,,0.00,weatherlink.com 1.10,2013-03-06 09:03:00,
2013-03-06 02:18:00,21.3,16.0,30.36,NNE,18,1.0,2.0,81,0.00,,,0.00,weatherlink.com 1.10,2013-03-06 09:18:00,
2013-03-06 02:33:00,20.9,16.0,30.35,NNE,18,1.0,2.0,82,0.00,,,0.00,weatherlink.com 1.10,2013-03-06 09:33:00,
2013-03-06 02:48:00,20.8,16.0,30.35,NNE,18,0.0,1.0,83,0.00,,,0.00,weatherlink.com 1.10,2013-03-06 09:48:00,
2013-03-06 03:03:00,20.8,17.0,30.34,NNE,18,1.0,1.0,84,0.00,,,0.00,weatherlink.com 1.10,2013-03-06 10:03:00,
2013-03-06 03:18:00,21.3,18.0,30.33,NNE,18,0.0,2.0,85,0.00,,,0.00,weatherlink.com 1.10,2013-03-06 10:18:00,
2013-03-06 03:33:00,22.0,18.0,30.32,NNE,18,2.0,3.0,85,0.00,,,0.00,weatherlink.com 1.10,2013-03-06 10:33:00,
2013-03-06 03:48:00,23.5,19.0,30.31,North,349,3.0,3.0,83,0.00,,,0.00,weatherlink.com 1.10,2013-03-06 10:48:00,
2013-03-06 04:03:00,24.3,19.0,30.32,North,357,1.0,3.0,79,0.00,,,0.00,weatherlink.com 1.10,2013-03-06 11:03:00,
2013-03-06 04:18:00,23.6,18.0,30.32,SSW,206,0.0,2.0,78,0.00,,,0.00,weatherlink.com 1.10,2013-03-06 11:18:00,
2013-03-06 04:33:00,22.6,17.0,30.32,SSW,205,0.0,0.0,80,0.00,,,0.00,weatherlink.com 1.10,2013-03-06 11:33:00,
2013-03-06 04:48:00,23.1,18.0,30.31,SSW,205,0.0,1.0,80,0.00,,,0.00,weatherlink.com 1.10,2013-03-06 11:48:00,
2013-03-06 05:03:00,23.9,18.0,30.31,SSW,205,0.0,1.0,78,0.00,,,0.00,weatherlink.com 1.10,2013-03-06 12:03:00,
2013-03-06 05:18:00,22.4,17.0,30.32,East,86,3.0,3.0,78,0.00,,,0.00,weatherlink.com 1.10,2013-03-06 12:18:00,
2013-03-06 05:33:00,21.4,17.0,30.30,NE,37,1.0,3.0,82,0.00,,,0.00,weatherlink.com 1.10,2013-03-06 12:33:00,
2013-03-06 05:48:00,21.9,17.0,30.30,NE,37,0.0,2.0,82,0.00,,,0.00,weatherlink.com 1.10,2013-03-06 12:48:00,
2013-03-06 06:03:00,23.3,17.0,30.30,NE,37,0.0,0.0,76,0.00,,,0.00,weatherlink.com 1.10,2013-03-06 13:03:00,
2013-03-06 06:18:00,23.0,17.0,30.30,NE,43,0.0,1.0,78,0.00,,,0.00,weatherlink.com 1.10,2013-03-06 13:18:00,
2013-03-06 06:33:00,22.6,17.0,30.29,NE,43,0.0,0.0,79,0.00,,,0.00,weatherlink.com 1.10,2013-03-06 13:33:00,
2013-03-06 06:48:00,23.6,18.0,30.28,NE,43,0.0,2.0,79,0.00,,,0.00,weatherlink.com 1.10,2013-03-06 13:48:00,
2013-03-06 07:03:00,25.0,18.0,30.28,NE,42,0.0,1.0,76,0.00,,,0.00,weatherlink.com 1.10,2013-03-06 14:03:00,
2013-03-06 07:18:00,26.7,20.0,30.28,NE,43,0.0,2.0,76,0.00,,,0.00,weatherlink.com 1.10,2013-03-06 14:18:00,
2013-03-06 07:34:00,27.0,20.0,30.28,NE,43,2.0,3.0,75,0.00,,,0.00,weatherlink.com 1.10,2013-03-06 14:34:00,
2013-03-06 07:49:00,26.4,20.0,30.28,ENE,77,4.0,4.0,76,0.00,,,0.00,weatherlink.com 1.10,2013-03-06 14:49:00,
2013-03-06 08:04:00,26.2,20.0,30.28,ESE,103,2.0,5.0,77,0.00,,,0.00,weatherlink.com 1.10,2013-03-06 15:04:00,
2013-03-06 08:19:00,27.8,22.0,30.27,ESE,105,3.0,3.0,78,0.00,,,0.00,weatherlink.com 1.10,2013-03-06 15:19:00,
2013-03-06 08:34:00,28.4,22.0,30.27,ESE,107,5.0,6.0,77,0.00,,,0.00,weatherlink.com 1.10,2013-03-06 15:34:00,
2013-03-06 08:49:00,29.7,23.0,30.27,SE,145,0.0,5.0,76,0.00,,,0.00,weatherlink.com 1.10,2013-03-06 15:49:00,
2013-03-06 09:04:00,31.4,23.0,30.26,East,101,1.0,4.0,71,0.00,,,0.00,weatherlink.com 1.10,2013-03-06 16:04:00,
2013-03-06 09:19:00,32.3,23.0,30.26,SE,138,3.0,6.0,68,0.00,,,0.00,weatherlink.com 1.10,2013-03-06 16:19:00,
2013-03-06 09:34:00,33.9,24.0,30.25,ESE,107,3.0,5.0,66,0.00,,,0.00,weatherlink.com 1.10,2013-03-06 16:34:00,
2013-03-06 09:49:00,36.0,23.0,30.25,SSW,198,1.0,5.0,60,0.00,,,0.00,weatherlink.com 1.10,2013-03-06 16:49:00,
2013-03-06 10:04:00,36.1,23.0,30.25,WSW,246,2.0,5.0,59,0.00,,,0.00,weatherlink.com 1.10,2013-03-06 17:04:00,
2013-03-06 10:19:00,38.2,23.0,30.24,ESE,108,3.0,4.0,55,0.00,,,0.00,weatherlink.com 1.10,2013-03-06 17:19:00,
2013-03-06 10:34:00,39.1,23.0,30.23,SSE,158,4.0,5.0,53,0.00,,,0.00,weatherlink.com 1.10,2013-03-06 17:34:00,
2013-03-06 10:49:00,40.1,23.0,30.22,SSE,160,2.0,6.0,50,0.00,,,0.00,weatherlink.com 1.10,2013-03-06 17:49:00,
2013-03-06 11:04:00,40.7,24.0,30.21,SE,143,5.0,6.0,51,0.00,,,0.00,weatherlink.com 1.10,2013-03-06 18:04:00,
2013-03-06 11:19:00,41.6,24.0,30.20,SSE,159,5.0,7.0,49,0.00,,,0.00,weatherlink.com 1.10,2013-03-06 18:19:00,
2013-03-06 11:34:00,42.3,23.0,30.19,SSW,197,1.0,7.0,47,0.00,,,0.00,weatherlink.com 1.10,2013-03-06 18:34:00,
2013-03-06 11:49:00,43.3,23.0,30.18,SSE,158,3.0,5.0,45,0.00,,,0.00,weatherlink.com 1.10,2013-03-06 18:49:00,
2013-03-06 12:04:00,43.8,22.0,30.18,SSE,151,2.0,5.0,43,0.00,,,0.00,weatherlink.com 1.10,2013-03-06 19:04:00,
2013-03-06 12:19:00,44.8,23.0,30.16,SSE,162,2.0,7.0,42,0.00,,,0.00,weatherlink.com 1.10,2013-03-06 19:19:00,
2013-03-06 12:35:00,45.4,25.0,30.15,SSE,160,4.0,9.0,45,0.00,,,0.00,weatherlink.com 1.10,2013-03-06 19:35:00,
2013-03-06 12:50:00,46.1,25.0,30.13,SSE,149,7.0,8.0,44,0.00,,,0.00,weatherlink.com 1.10,2013-03-06 19:50:00,
2013-03-06 13:05:00,47.5,24.0,30.12,SSE,148,3.0,9.0,40,0.00,,,0.00,weatherlink.com 1.10,2013-03-06 20:05:00,
2013-03-06 13:20:00,46.6,24.0,30.11,ESE,122,5.0,9.0,41,0.00,,,0.00,weatherlink.com 1.10,2013-03-06 20:20:00,
2013-03-06 13:35:00,47.2,24.0,30.10,SE,128,5.0,8.0,40,0.00,,,0.00,weatherlink.com 1.10,2013-03-06 20:35:00,
2013-03-06 13:50:00,49.3,25.0,30.09,SE,145,3.0,8.0,39,0.00,,,0.00,weatherlink.com 1.10,2013-03-06 20:50:00,
2013-03-06 14:05:00,50.3,23.0,30.09,South,187,3.0,9.0,35,0.00,,,0.00,weatherlink.com 1.10,2013-03-06 21:05:00,
2013-03-06 14:20:00,50.8,25.0,30.08,SSE,155,6.0,10.0,36,0.00,,,0.00,weatherlink.com 1.10,2013-03-06 21:20:00,
2013-03-06 14:35:00,51.4,25.0,30.07,SE,145,7.0,9.0,36,0.00,,,0.00,weatherlink.com 1.10,2013-03-06 21:35:00,
2013-03-06 14:50:00,50.2,25.0,30.06,SE,146,5.0,10.0,38,0.00,,,0.00,weatherlink.com 1.10,2013-03-06 21:50:00,
2013-03-06 15:05:00,51.1,26.0,30.05,SSE,166,7.0,11.0,38,0.00,,,0.00,weatherlink.com 1.10,2013-03-06 22:05:00,
2013-03-06 15:20:00,49.7,25.0,30.05,SSE,162,4.0,10.0,39,0.00,,,0.00,weatherlink.com 1.10,2013-03-06 22:20:00,
2013-03-06 15:35:00,50.3,27.0,30.05,SSE,149,6.0,7.0,40,0.00,,,0.00,weatherlink.com 1.10,2013-03-06 22:35:00,
2013-03-06 15:50:00,51.4,27.0,30.04,South,191,3.0,5.0,39,0.00,,,0.00,weatherlink.com 1.10,2013-03-06 22:50:00,
2013-03-06 16:05:00,53.1,27.0,30.04,SSE,155,2.0,6.0,37,0.00,,,0.00,weatherlink.com 1.10,2013-03-06 23:05:00,
2013-03-06 16:20:00,54.1,27.0,30.03,South,179,4.0,6.0,35,0.00,,,0.00,weatherlink.com 1.10,2013-03-06 23:20:00,
2013-03-06 16:35:00,53.6,26.0,30.03,South,170,4.0,7.0,34,0.00,,,0.00,weatherlink.com 1.10,2013-03-06 23:35:00,
2013-03-06 16:50:00,53.4,25.0,30.03,South,173,3.0,6.0,34,0.00,,,0.00,weatherlink.com 1.10,2013-03-06 23:50:00,
2013-03-06 17:05:00,53.0,25.0,30.03,SW,222,2.0,5.0,34,0.00,,,0.00,weatherlink.com 1.10,2013-03-07 00:05:00,
2013-03-06 17:20:00,52.7,24.0,30.02,SE,128,2.0,2.0,33,0.00,,,0.00,weatherlink.com 1.10,2013-03-07 00:20:00,
2013-03-06 17:35:00,50.2,24.0,30.02,ESE,111,1.0,2.0,36,0.00,,,0.00,weatherlink.com 1.10,2013-03-07 00:35:00,
2013-03-06 17:50:00,48.9,23.0,30.01,East,101,2.0,4.0,37,0.00,,,0.00,weatherlink.com 1.10,2013-03-07 00:50:00,
2013-03-06 18:05:00,46.9,24.0,30.01,ESE,111,3.0,4.0,40,0.00,,,0.00,weatherlink.com 1.10,2013-03-07 01:05:00,
2013-03-06 18:20:00,45.7,23.0,30.02,NE,39,2.0,4.0,41,0.00,,,0.00,weatherlink.com 1.10,2013-03-07 01:20:00,
2013-03-06 18:35:00,42.2,22.0,30.02,NNE,31,3.0,4.0,45,0.00,,,0.00,weatherlink.com 1.10,2013-03-07 01:35:00,
2013-03-06 18:50:00,43.0,23.0,30.02,NE,40,1.0,1.0,45,0.00,,,0.00,weatherlink.com 1.10,2013-03-07 01:50:00,
2013-03-06 19:05:00,42.6,24.0,30.01,ENE,75,3.0,4.0,48,0.00,,,0.00,weatherlink.com 1.10,2013-03-07 02:05:00,
2013-03-06 19:20:00,43.1,24.0,30.01,ENE,73,1.0,4.0,48,0.00,,,0.00,weatherlink.com 1.10,2013-03-07 02:20:00,
2013-03-06 19:35:00,45.6,26.0,30.01,SSE,148,1.0,4.0,46,0.00,,,0.00,weatherlink.com 1.10,2013-03-07 02:35:00,
2013-03-06 19:50:00,46.0,26.0,30.01,SSE,155,2.0,3.0,45,0.00,,,0.00,weatherlink.com 1.10,2013-03-07 02:50:00,
2013-03-06 20:06:00,46.3,26.0,30.00,East,97,4.0,4.0,45,0.00,,,0.00,weatherlink.com 1.10,2013-03-07 03:06:00,
2013-03-06 20:21:00,41.1,24.0,30.01,NNW,342,3.0,4.0,52,0.00,,,0.00,weatherlink.com 1.10,2013-03-07 03:21:00,
2013-03-06 20:36:00,40.6,25.0,30.00,North,350,1.0,3.0,54,0.00,,,0.00,weatherlink.com 1.10,2013-03-07 03:36:00,
2013-03-06 20:51:00,41.3,25.0,30.00,North,352,3.0,4.0,53,0.00,,,0.00,weatherlink.com 1.10,2013-03-07 03:51:00,
2013-03-06 21:06:00,40.3,25.0,30.00,North,11,1.0,4.0,54,0.00,,,0.00,weatherlink.com 1.10,2013-03-07 04:06:00,
2013-03-06 21:21:00,40.8,25.0,30.00,NNW,345,0.0,2.0,54,0.00,,,0.00,weatherlink.com 1.10,2013-03-07 04:21:00,
2013-03-06 21:36:00,40.0,24.0,29.99,NE,36,4.0,5.0,54,0.00,,,0.00,weatherlink.com 1.10,2013-03-07 04:36:00,
2013-03-06 21:51:00,39.5,24.0,29.99,NNE,25,2.0,4.0,55,0.00,,,0.00,weatherlink.com 1.10,2013-03-07 04:51:00,
2013-03-06 22:06:00,40.5,25.0,30.00,NNW,336,2.0,4.0,55,0.00,,,0.00,weatherlink.com 1.10,2013-03-07 05:06:00,
2013-03-06 22:21:00,41.8,26.0,30.00,NNW,345,2.0,4.0,54,0.00,,,0.00,weatherlink.com 1.10,2013-03-07 05:21:00,
2013-03-06 22:36:00,41.7,26.0,29.98,North,4,3.0,3.0,54,0.00,,,0.00,weatherlink.com 1.10,2013-03-07 05:36:00,
2013-03-06 22:51:00,39.9,25.0,29.98,North,4,4.0,5.0,55,0.00,,,0.00,weatherlink.com 1.10,2013-03-07 05:51:00,
2013-03-06 23:06:00,40.4,26.0,29.98,NNE,15,4.0,6.0,58,0.00,,,0.00,weatherlink.com 1.10,2013-03-07 06:06:00,
2013-03-06 23:21:00,39.1,25.0,29.98,NNW,342,1.0,5.0,58,0.00,,,0.00,weatherlink.com 1.10,2013-03-07 06:21:00,
2013-03-06 23:36:00,38.3,25.0,29.98,North,9,4.0,5.0,60,0.00,,,0.00,weatherlink.com 1.10,2013-03-07 06:36:00,
2013-03-06 23:51:00,36.7,24.0,29.98,East,89,0.0,5.0,61,0.00,,,0.00,weatherlink.com 1.10,2013-03-07 06:51:00,